首页
METAR-TAF:

METAR-TAF

机场 :

Bradford, 宾夕法尼亚州, 美国

纬度: 41-47-55N, 经度: 078-38-09W, 海拔: 653米

当前天气观测

该预报发布于27分钟前的11:53 UTC
静风
温度 16°C
湿度 100%
气压 1014 hPa
能見度: 2.0公里
阴天层高于200英尺
轻雾

METAR: KBFD 051153Z AUTO 00000KT 1 1/4SM BR OVC002 16/16 A2994 RMK AO2 SLP126 70001 T01610156 10167 20161 51005

时间: 08:20 (12:20 UTC)

预报

该预报发布于1小时和0分钟前的11:20 UTC
预报有效从05日的 12点(UTC)到 06日的 12点(UTC)
风速5节,风向西南
能見度: 10公里
阴天层高于1500英尺
短暂存在
从 05日的 12点(UTC)到 05日的 14点(UTC)
能見度: 3.2公里
阴天层高于500英尺
轻雾
从 05日的 1400点(UTC)
风速8节,风向南转西南
能見度: 10公里
散云层高于5000英尺
从 06日的 0000点(UTC)
风速8节,风向西南
能見度: 10公里
多云层高于5000英尺
从 06日的 0900点(UTC)
风速8节,风向西北
能見度: 10公里
阴天层高于800英尺

TAF: KBFD 051120Z 0512/0612 22005KT P6SM OVC015 TEMPO 0512/0514 2SM BR OVC005 FM051400 21008KT P6SM SCT050 FM060000 23008KT P6SM BKN050 FM060900 31008KT P6SM OVC008

超过4000个机场的气象观测和天气预报(METAR&TAF报告)。

可查询的气象台以黄色和红色小点在地图上表示。

将鼠标移到小点上方,可查看气象台名称。

然后点击查看天气观测和预报。

如需切换地图:点击带黑十字的绿色按钮放大地图;点击带横线的绿色按钮缩小地图;或者点击绿色箭头查看邻近地区的地图。


METAR-TAF: